Ampthill, United Kingdom
Current Conditions -  °F | °C
As of 3:20 PM on Tuesday 21 Oct 2014 (Local Time) from EGTC Reporting Station
Few Clouds Few Clouds  
Wind Chill: 12°   Ceiling: Unl
Heat Index: 12°   Visibility: 6mi
Dew Point:   Wind: 21mph
Humidity: 62%   Direction: 300°WNW
Pressure: 29.74"   Gusts: 32mph
Location:  52.03°N, 0.5°W
Report Text: EGTC 211420Z 30018G28KT 9999 FEW030CB 12/05 Q1007
Loading
Personal Weather Stations






























Interactive Weather Map
Tropical Storm Tracking
New forecast layout! Learn more

10-Day Weather Forecast

Advertisements
Track Severe Weather on mobile